PWSweather.com
Personal Weather Stations
Station Observations
PRATO
PratoIT 59100

PratoIT 59100

Lat: 43.8956799, Lon: 11.0845155

Elevation: 164

Station Type: Davis Vantage Vue

http://www.meteoprato.it

Latest ConditionsUpdated 12:10:00 PM GMT+01:01 Wednesday, Jan 17, 2018
Currently Today's Max Today's Min Today's Average
Temperature 60.3°F15.7°C 61.1°F16.2°C 54.3°F12.4°C 56.0°F13.3°C
Dew Point 31.8°F-0.1°C 51.1°F10.6°C 31.8°F-0.1°C 49.2°F9.6°C
Winds 6.3 mph ENE10.1 kmh ENE 13.6 mph WSW21.9 kmh WSW - 7.8 mph 12.6 kmh
Wind Gusts 14.0 mph22.5 kmh 27.0 mph43.5 kmh - -
Humidity 34% 87% 34% 79%
Pressure 29.54 in1000.3 mb 29.67 in1004.7 mb 29.49 in998.6 mb -
Precipitation - 0.04 in1.0 mm - -
Hour Temp Dew Point Humidity Winds Wind Gusts Pressure Precip Precip Rate Daily Precip Total
12:10 PM 60.3°F15.7°C 31.8°F-0.1°C 34% 6.3 mph ENE10.1 kmh ENE 14.0 mph22.5 kmh 29.54 in1000.3 mb 0.00 in0.0 mm 0.00 in0.0 mm 0.04 in1.0 mm
12:05 PM 60.5°F15.8°C 32.0°F0.0°C 34% 7.1 mph NE11.4 kmh NE 15.0 mph24.1 kmh 29.54 in1000.3 mb 0.00 in0.0 mm 0.00 in0.0 mm 0.04 in1.0 mm
12:00 PM 61.1°F16.2°C 39.0°F3.9°C 44% 7.8 mph WSW12.6 kmh WSW 16.0 mph25.7 kmh 29.54 in1000.3 mb 0.00 in0.0 mm 0.00 in0.0 mm 0.04 in1.0 mm
11:55 AM 60.7°F15.9°C 40.3°F4.6°C 47% 8.0 mph SW12.9 kmh SW 22.0 mph35.4 kmh 29.53 in1000.0 mb 0.00 in0.0 mm 0.00 in0.0 mm 0.04 in1.0 mm
11:50 AM 60.6°F15.9°C 41.3°F5.2°C 49% 8.0 mph SW12.9 kmh SW 22.0 mph35.4 kmh 29.53 in1000.0 mb 0.00 in0.0 mm 0.00 in0.0 mm 0.04 in1.0 mm
11:45 AM 60.5°F15.8°C 42.3°F5.7°C 51% 7.9 mph SW12.7 kmh SW 21.0 mph33.8 kmh 29.53 in1000.0 mb 0.00 in0.0 mm 0.00 in0.0 mm 0.04 in1.0 mm
11:40 AM 60.2°F15.7°C 42.5°F5.8°C 52% 8.5 mph SW13.7 kmh SW 20.0 mph32.2 kmh 29.53 in1000.0 mb 0.00 in0.0 mm 0.00 in0.0 mm 0.04 in1.0 mm
11:35 AM 59.8°F15.4°C 43.6°F6.4°C 55% 9.3 mph SW15.0 kmh SW 20.0 mph32.2 kmh 29.53 in1000.0 mb 0.00 in0.0 mm 0.00 in0.0 mm 0.04 in1.0 mm
11:30 AM 59.2°F15.1°C 45.8°F7.7°C 61% 9.0 mph WSW14.5 kmh WSW 20.0 mph32.2 kmh 29.53 in1000.0 mb 0.00 in0.0 mm 0.00 in0.0 mm 0.04 in1.0 mm
11:25 AM 59.0°F15.0°C 47.2°F8.4°C 65% 8.0 mph WSW12.9 kmh WSW 20.0 mph32.2 kmh 29.53 in1000.0 mb 0.00 in0.0 mm 0.00 in0.0 mm 0.04 in1.0 mm
11:20 AM 59.1°F15.1°C 48.1°F8.9°C 67% 7.2 mph WSW11.6 kmh WSW 19.0 mph30.6 kmh 29.53 in1000.0 mb 0.00 in0.0 mm 0.00 in0.0 mm 0.04 in1.0 mm
11:15 AM 58.8°F14.9°C 48.3°F9.1°C 68% 6.9 mph WSW11.1 kmh WSW 19.0 mph30.6 kmh 29.52 in999.7 mb 0.00 in0.0 mm 0.00 in0.0 mm 0.04 in1.0 mm
11:10 AM 58.8°F14.9°C 48.6°F9.2°C 69% 6.8 mph SW10.9 kmh SW 15.0 mph24.1 kmh 29.53 in1000.0 mb 0.00 in0.0 mm 0.00 in0.0 mm 0.04 in1.0 mm
11:05 AM 58.5°F14.7°C 49.1°F9.5°C 71% 6.3 mph WSW10.1 kmh WSW 15.0 mph24.1 kmh 29.53 in1000.0 mb 0.00 in0.0 mm 0.00 in0.0 mm 0.04 in1.0 mm
11:00 AM 58.4°F14.7°C 49.0°F9.4°C 71% 6.7 mph WSW10.8 kmh WSW 16.0 mph25.7 kmh 29.52 in999.7 mb 0.00 in0.0 mm 0.00 in0.0 mm 0.04 in1.0 mm
10:55 AM 58.4°F14.7°C 49.0°F9.4°C 71% 7.6 mph SW12.2 kmh SW 16.0 mph25.7 kmh 29.52 in999.7 mb 0.00 in0.0 mm 0.00 in0.0 mm 0.04 in1.0 mm
10:50 AM 58.2°F14.6°C 49.2°F9.6°C 72% 7.3 mph SW11.7 kmh SW 18.0 mph29.0 kmh 29.52 in999.7 mb 0.00 in0.0 mm 0.00 in0.0 mm 0.04 in1.0 mm
10:45 AM 58.1°F14.5°C 48.7°F9.3°C 71% 6.3 mph SW10.1 kmh SW 18.0 mph29.0 kmh 29.52 in999.7 mb 0.00 in0.0 mm 0.00 in0.0 mm 0.04 in1.0 mm
10:40 AM 58.2°F14.6°C 48.8°F9.3°C 71% 5.9 mph SW9.5 kmh SW 17.0 mph27.4 kmh 29.52 in999.7 mb 0.00 in0.0 mm 0.00 in0.0 mm 0.04 in1.0 mm
10:35 AM 58.1°F14.5°C 48.7°F9.3°C 71% 6.3 mph SW10.1 kmh SW 14.0 mph22.5 kmh 29.52 in999.7 mb 0.00 in0.0 mm 0.00 in0.0 mm 0.04 in1.0 mm
10:30 AM 57.8°F14.3°C 48.8°F9.3°C 72% 6.8 mph SW10.9 kmh SW 14.0 mph22.5 kmh 29.52 in999.7 mb 0.00 in0.0 mm 0.00 in0.0 mm 0.04 in1.0 mm
10:25 AM 57.4°F14.1°C 49.2°F9.6°C 74% 6.2 mph WSW10.0 kmh WSW 17.0 mph27.4 kmh 29.52 in999.7 mb 0.00 in0.0 mm 0.00 in0.0 mm 0.04 in1.0 mm
10:20 AM 57.2°F14.0°C 49.3°F9.6°C 75% 4.1 mph WSW6.6 kmh WSW 17.0 mph27.4 kmh 29.51 in999.3 mb 0.00 in0.0 mm 0.00 in0.0 mm 0.04 in1.0 mm
10:15 AM 57.0°F13.9°C 49.5°F9.7°C 76% 2.1 mph WSW3.4 kmh WSW 14.0 mph22.5 kmh 29.50 in999.0 mb 0.00 in0.0 mm 0.00 in0.0 mm 0.04 in1.0 mm
10:10 AM 57.0°F13.9°C 49.5°F9.7°C 76% 1.2 mph WSW1.9 kmh WSW 9.0 mph14.5 kmh 29.51 in999.3 mb 0.00 in0.0 mm 0.00 in0.0 mm 0.04 in1.0 mm
10:05 AM 57.0°F13.9°C 49.9°F9.9°C 77% 1.0 mph N1.6 kmh N 4.0 mph6.4 kmh 29.51 in999.3 mb 0.00 in0.0 mm 0.00 in0.0 mm 0.04 in1.0 mm
10:00 AM 56.8°F13.8°C 50.0°F10.0°C 78% 1.0 mph N1.6 kmh N 4.0 mph6.4 kmh 29.51 in999.3 mb 0.00 in0.0 mm 0.00 in0.0 mm 0.04 in1.0 mm
09:55 AM 56.5°F13.6°C 49.7°F9.8°C 78% 1.0 mph NNE1.6 kmh NNE 4.0 mph6.4 kmh 29.51 in999.3 mb 0.00 in0.0 mm 0.00 in0.0 mm 0.04 in1.0 mm
09:50 AM 56.1°F13.4°C 49.7°F9.8°C 79% 1.0 mph NE1.6 kmh NE 6.0 mph9.7 kmh 29.51 in999.3 mb 0.00 in0.0 mm 0.00 in0.0 mm 0.04 in1.0 mm
09:45 AM 55.9°F13.3°C 49.5°F9.7°C 79% 1.0 mph NNE1.6 kmh NNE 6.0 mph9.7 kmh 29.51 in999.3 mb 0.00 in0.0 mm 0.00 in0.0 mm 0.04 in1.0 mm
09:40 AM 55.7°F13.2°C 49.6°F9.8°C 80% 1.0 mph W1.6 kmh W 4.0 mph6.4 kmh 29.50 in999.0 mb 0.00 in0.0 mm 0.00 in0.0 mm 0.04 in1.0 mm
09:35 AM 55.3°F12.9°C 49.2°F9.6°C 80% 1.1 mph NE1.8 kmh NE 5.0 mph8.0 kmh 29.50 in999.0 mb 0.00 in0.0 mm 0.00 in0.0 mm 0.04 in1.0 mm
09:30 AM 55.0°F12.8°C 48.9°F9.4°C 80% 1.4 mph NE2.3 kmh NE 5.0 mph8.0 kmh 29.50 in999.0 mb 0.00 in0.0 mm 0.00 in0.0 mm 0.04 in1.0 mm
09:25 AM 54.9°F12.7°C 48.8°F9.3°C 80% 1.7 mph WSW2.7 kmh WSW 7.0 mph11.3 kmh 29.51 in999.3 mb 0.00 in0.0 mm 0.00 in0.0 mm 0.04 in1.0 mm
09:20 AM 54.7°F12.6°C 48.6°F9.2°C 80% 2.3 mph NE3.7 kmh NE 7.0 mph11.3 kmh 29.51 in999.3 mb 0.00 in0.0 mm 0.00 in0.0 mm 0.04 in1.0 mm
09:15 AM 54.8°F12.7°C 48.7°F9.3°C 80% 2.8 mph NE4.5 kmh NE 7.0 mph11.3 kmh 29.51 in999.3 mb 0.00 in0.0 mm 0.00 in0.0 mm 0.04 in1.0 mm
09:10 AM 54.9°F12.7°C 48.8°F9.3°C 80% 2.0 mph NE3.2 kmh NE 9.0 mph14.5 kmh 29.51 in999.3 mb 0.00 in0.0 mm 0.00 in0.0 mm 0.04 in1.0 mm
09:05 AM 54.9°F12.7°C 48.5°F9.2°C 79% 1.6 mph NNE2.6 kmh NNE 9.0 mph14.5 kmh 29.51 in999.3 mb 0.00 in0.0 mm 0.00 in0.0 mm 0.04 in1.0 mm
09:00 AM 54.8°F12.7°C 48.4°F9.1°C 79% 2.5 mph WSW4.0 kmh WSW 7.0 mph11.3 kmh 29.51 in999.3 mb 0.00 in0.0 mm 0.00 in0.0 mm 0.04 in1.0 mm
08:55 AM 54.7°F12.6°C 48.3°F9.1°C 79% 3.0 mph WSW4.8 kmh WSW 10.0 mph16.1 kmh 29.51 in999.3 mb 0.00 in0.0 mm 0.00 in0.0 mm 0.04 in1.0 mm
08:50 AM 54.6°F12.6°C 48.2°F9.0°C 79% 2.8 mph WSW4.5 kmh WSW 14.0 mph22.5 kmh 29.51 in999.3 mb 0.00 in0.0 mm 0.00 in0.0 mm 0.04 in1.0 mm
08:45 AM 54.5°F12.5°C 48.5°F9.2°C 80% 2.5 mph WSW4.0 kmh WSW 14.0 mph22.5 kmh 29.52 in999.7 mb 0.00 in0.0 mm 0.00 in0.0 mm 0.04 in1.0 mm
08:40 AM 54.5°F12.5°C 48.5°F9.2°C 80% 2.6 mph WSW4.2 kmh WSW 12.0 mph19.3 kmh 29.52 in999.7 mb 0.00 in0.0 mm 0.00 in0.0 mm 0.04 in1.0 mm
08:35 AM 54.3°F12.4°C 48.3°F9.1°C 80% 3.4 mph WSW5.5 kmh WSW 10.0 mph16.1 kmh 29.51 in999.3 mb 0.00 in0.0 mm 0.00 in0.0 mm 0.04 in1.0 mm
08:30 AM 54.4°F12.4°C 48.4°F9.1°C 80% 4.0 mph WSW6.4 kmh WSW 10.0 mph16.1 kmh 29.52 in999.7 mb 0.00 in0.0 mm 0.00 in0.0 mm 0.04 in1.0 mm
08:25 AM 54.4°F12.4°C 48.4°F9.1°C 80% 4.1 mph WSW6.6 kmh WSW 11.0 mph17.7 kmh 29.51 in999.3 mb 0.00 in0.0 mm 0.00 in0.0 mm 0.04 in1.0 mm
08:20 AM 54.3°F12.4°C 48.3°F9.1°C 80% 4.5 mph WSW7.2 kmh WSW 12.0 mph19.3 kmh 29.52 in999.7 mb 0.00 in0.0 mm 0.00 in0.0 mm 0.04 in1.0 mm
08:15 AM 54.4°F12.4°C 48.4°F9.1°C 80% 4.4 mph SW7.1 kmh SW 15.0 mph24.1 kmh 29.52 in999.7 mb 0.00 in0.0 mm 0.00 in0.0 mm 0.04 in1.0 mm
08:10 AM 54.4°F12.4°C 48.0°F8.9°C 79% 4.0 mph SW6.4 kmh SW 15.0 mph24.1 kmh 29.52 in999.7 mb 0.00 in0.0 mm 0.00 in0.0 mm 0.04 in1.0 mm
08:05 AM 54.4°F12.4°C 48.4°F9.1°C 80% 4.4 mph WSW7.1 kmh WSW 13.0 mph20.9 kmh 29.52 in999.7 mb 0.00 in0.0 mm 0.00 in0.0 mm 0.04 in1.0 mm
08:00 AM 54.6°F12.6°C 48.6°F9.2°C 80% 5.2 mph WSW8.4 kmh WSW 13.0 mph20.9 kmh 29.51 in999.3 mb 0.00 in0.0 mm 0.00 in0.0 mm 0.04 in1.0 mm
07:55 AM 54.7°F12.6°C 48.6°F9.2°C 80% 5.3 mph WSW8.5 kmh WSW 16.0 mph25.7 kmh 29.50 in999.0 mb 0.00 in0.0 mm 0.00 in0.0 mm 0.04 in1.0 mm
07:50 AM 54.7°F12.6°C 48.6°F9.2°C 80% 6.0 mph WSW9.7 kmh WSW 16.0 mph25.7 kmh 29.51 in999.3 mb 0.00 in0.0 mm 0.00 in0.0 mm 0.04 in1.0 mm
07:45 AM 54.8°F12.7°C 48.7°F9.3°C 80% 8.0 mph WSW12.9 kmh WSW 18.0 mph29.0 kmh 29.50 in999.0 mb 0.00 in0.0 mm 0.00 in0.0 mm 0.04 in1.0 mm
07:40 AM 55.1°F12.8°C 48.7°F9.3°C 79% 8.6 mph WSW13.8 kmh WSW 24.0 mph38.6 kmh 29.50 in999.0 mb 0.00 in0.0 mm 0.00 in0.0 mm 0.04 in1.0 mm
07:35 AM 55.3°F12.9°C 48.6°F9.2°C 78% 8.3 mph WSW13.4 kmh WSW 24.0 mph38.6 kmh 29.50 in999.0 mb 0.00 in0.0 mm 0.00 in0.0 mm 0.04 in1.0 mm
07:30 AM 55.3°F12.9°C 48.6°F9.2°C 78% 8.6 mph WSW13.8 kmh WSW 19.0 mph30.6 kmh 29.50 in999.0 mb 0.00 in0.0 mm 0.00 in0.0 mm 0.04 in1.0 mm
07:25 AM 55.4°F13.0°C 49.0°F9.4°C 79% 7.9 mph WSW12.7 kmh WSW 19.0 mph30.6 kmh 29.50 in999.0 mb 0.00 in0.0 mm 0.00 in0.0 mm 0.04 in1.0 mm
07:20 AM 55.5°F13.1°C 49.1°F9.5°C 79% 6.9 mph WSW11.1 kmh WSW 18.0 mph29.0 kmh 29.50 in999.0 mb 0.00 in0.0 mm 0.00 in0.0 mm 0.04 in1.0 mm
07:15 AM 55.6°F13.1°C 49.2°F9.6°C 79% 8.0 mph WSW12.9 kmh WSW 18.0 mph29.0 kmh 29.49 in998.6 mb 0.00 in0.0 mm 0.00 in0.0 mm 0.04 in1.0 mm
07:10 AM 55.8°F13.2°C 49.0°F9.4°C 78% 9.9 mph WSW15.9 kmh WSW 20.0 mph32.2 kmh 29.50 in999.0 mb 0.01 in0.3 mm 0.00 in0.0 mm 0.04 in1.0 mm
07:05 AM 55.9°F13.3°C 49.1°F9.5°C 78% 11.3 mph SW18.2 kmh SW 25.0 mph40.2 kmh 29.49 in998.6 mb 0.01 in0.3 mm 0.00 in0.0 mm 0.04 in1.0 mm
07:00 AM 56.1°F13.4°C 49.0°F9.4°C 77% 12.7 mph SW20.4 kmh SW 25.0 mph40.2 kmh 29.50 in999.0 mb 0.01 in0.3 mm 0.00 in0.0 mm 0.04 in1.0 mm
06:55 AM 56.1°F13.4°C 49.3°F9.6°C 78% 13.6 mph WSW21.9 kmh WSW 24.0 mph38.6 kmh 29.50 in999.0 mb 0.01 in0.3 mm 0.00 in0.0 mm 0.04 in1.0 mm
06:50 AM 56.1°F13.4°C 49.3°F9.6°C 78% 12.9 mph WSW20.8 kmh WSW 25.0 mph40.2 kmh 29.50 in999.0 mb 0.01 in0.3 mm 0.00 in0.0 mm 0.04 in1.0 mm
06:45 AM 56.1°F13.4°C 49.3°F9.6°C 78% 11.8 mph WSW19.0 kmh WSW 25.0 mph40.2 kmh 29.50 in999.0 mb 0.01 in0.3 mm 0.00 in0.0 mm 0.04 in1.0 mm
06:40 AM 55.9°F13.3°C 49.1°F9.5°C 78% 11.4 mph WSW18.3 kmh WSW 22.0 mph35.4 kmh 29.49 in998.6 mb 0.01 in0.3 mm 0.00 in0.0 mm 0.04 in1.0 mm
06:35 AM 55.8°F13.2°C 49.4°F9.7°C 79% 11.4 mph WSW18.3 kmh WSW 22.0 mph35.4 kmh 29.50 in999.0 mb 0.01 in0.3 mm 0.00 in0.0 mm 0.04 in1.0 mm
06:30 AM 55.7°F13.2°C 49.6°F9.8°C 80% 12.2 mph WSW19.6 kmh WSW 20.0 mph32.2 kmh 29.50 in999.0 mb 0.01 in0.3 mm 0.00 in0.0 mm 0.04 in1.0 mm
06:25 AM 55.7°F13.2°C 49.6°F9.8°C 80% 13.1 mph SW21.1 kmh SW 27.0 mph43.5 kmh 29.51 in999.3 mb 0.01 in0.3 mm 0.00 in0.0 mm 0.04 in1.0 mm
06:20 AM 55.7°F13.2°C 49.6°F9.8°C 80% 13.5 mph WSW21.7 kmh WSW 27.0 mph43.5 kmh 29.50 in999.0 mb 0.01 in0.3 mm 0.00 in0.0 mm 0.04 in1.0 mm
06:15 AM 55.6°F13.1°C 49.9°F9.9°C 81% 12.6 mph WSW20.3 kmh WSW 25.0 mph40.2 kmh 29.51 in999.3 mb 0.01 in0.3 mm 0.00 in0.0 mm 0.04 in1.0 mm
06:10 AM 55.6°F13.1°C 50.2°F10.1°C 82% 12.0 mph WSW19.3 kmh WSW 25.0 mph40.2 kmh 29.50 in999.0 mb 0.01 in0.3 mm 0.00 in0.0 mm 0.03 in0.8 mm
06:05 AM 55.9°F13.3°C 49.8°F9.9°C 80% 12.7 mph WSW20.4 kmh WSW 23.0 mph37.0 kmh 29.51 in999.3 mb 0.01 in0.3 mm 0.00 in0.0 mm 0.03 in0.8 mm
06:00 AM 56.1°F13.4°C 49.7°F9.8°C 79% 12.3 mph WSW19.8 kmh WSW 23.0 mph37.0 kmh 29.51 in999.3 mb 0.02 in0.5 mm 0.00 in0.0 mm 0.03 in0.8 mm
05:55 AM 56.1°F13.4°C 49.3°F9.6°C 78% 10.4 mph WSW16.7 kmh WSW 23.0 mph37.0 kmh 29.50 in999.0 mb 0.02 in0.5 mm 0.00 in0.0 mm 0.03 in0.8 mm
05:50 AM 56.0°F13.3°C 49.6°F9.8°C 79% 9.4 mph WSW15.1 kmh WSW 23.0 mph37.0 kmh 29.50 in999.0 mb 0.02 in0.5 mm 0.00 in0.0 mm 0.03 in0.8 mm
05:45 AM 55.8°F13.2°C 49.7°F9.8°C 80% 10.2 mph WSW16.4 kmh WSW 16.0 mph25.7 kmh 29.51 in999.3 mb 0.02 in0.5 mm 0.00 in0.0 mm 0.03 in0.8 mm
05:40 AM 55.7°F13.2°C 50.0°F10.0°C 81% 11.0 mph WSW17.7 kmh WSW 22.0 mph35.4 kmh 29.51 in999.3 mb 0.02 in0.5 mm 0.00 in0.0 mm 0.03 in0.8 mm
05:35 AM 55.7°F13.2°C 49.6°F9.8°C 80% 10.9 mph WSW17.5 kmh WSW 22.0 mph35.4 kmh 29.52 in999.7 mb 0.02 in0.5 mm 0.00 in0.0 mm 0.03 in0.8 mm
05:30 AM 55.5°F13.1°C 50.1°F10.1°C 82% 9.9 mph SW15.9 kmh SW 20.0 mph32.2 kmh 29.52 in999.7 mb 0.02 in0.5 mm 0.00 in0.0 mm 0.03 in0.8 mm
05:25 AM 55.2°F12.9°C 50.1°F10.1°C 83% 9.6 mph SW15.4 kmh SW 20.0 mph32.2 kmh 29.52 in999.7 mb 0.02 in0.5 mm 0.00 in0.0 mm 0.03 in0.8 mm
05:20 AM 55.3°F12.9°C 50.2°F10.1°C 83% 9.6 mph WSW15.4 kmh WSW 21.0 mph33.8 kmh 29.52 in999.7 mb 0.02 in0.5 mm 0.00 in0.0 mm 0.03 in0.8 mm
05:15 AM 55.3°F12.9°C 50.2°F10.1°C 83% 9.3 mph SW15.0 kmh SW 23.0 mph37.0 kmh 29.52 in999.7 mb 0.02 in0.5 mm 0.12 in3.0 mm 0.03 in0.8 mm
05:10 AM 55.5°F13.1°C 50.4°F10.2°C 83% 9.6 mph SW15.4 kmh SW 23.0 mph37.0 kmh 29.52 in999.7 mb 0.01 in0.3 mm 0.00 in0.0 mm 0.02 in0.5 mm
05:05 AM 55.5°F13.1°C 50.1°F10.1°C 82% 10.1 mph WSW16.3 kmh WSW 25.0 mph40.2 kmh 29.53 in1000.0 mb 0.01 in0.3 mm 0.12 in3.0 mm 0.02 in0.5 mm
05:00 AM 55.7°F13.2°C 50.3°F10.2°C 82% 9.3 mph WSW15.0 kmh WSW 25.0 mph40.2 kmh 29.53 in1000.0 mb 0.00 in0.0 mm 0.00 in0.0 mm 0.02 in0.5 mm
04:55 AM 55.7°F13.2°C 50.3°F10.2°C 82% 7.9 mph WSW12.7 kmh WSW 18.0 mph29.0 kmh 29.52 in999.7 mb 0.00 in0.0 mm 0.00 in0.0 mm 0.02 in0.5 mm
04:50 AM 55.7°F13.2°C 50.3°F10.2°C 82% 7.3 mph WSW11.7 kmh WSW 18.0 mph29.0 kmh 29.52 in999.7 mb 0.00 in0.0 mm 0.00 in0.0 mm 0.02 in0.5 mm
04:45 AM 55.5°F13.1°C 50.4°F10.2°C 83% 7.9 mph SW12.7 kmh SW 16.0 mph25.7 kmh 29.52 in999.7 mb 0.00 in0.0 mm 0.00 in0.0 mm 0.02 in0.5 mm
04:40 AM 55.5°F13.1°C 50.1°F10.1°C 82% 9.0 mph SW14.5 kmh SW 14.0 mph22.5 kmh 29.53 in1000.0 mb 0.00 in0.0 mm 0.00 in0.0 mm 0.02 in0.5 mm
04:35 AM 55.5°F13.1°C 50.4°F10.2°C 83% 8.6 mph WSW13.8 kmh WSW 19.0 mph30.6 kmh 29.52 in999.7 mb 0.01 in0.3 mm 0.00 in0.0 mm 0.02 in0.5 mm
04:30 AM 55.4°F13.0°C 50.3°F10.2°C 83% 7.7 mph SW12.4 kmh SW 19.0 mph30.6 kmh 29.52 in999.7 mb 0.01 in0.3 mm 0.00 in0.0 mm 0.02 in0.5 mm
04:25 AM 55.3°F12.9°C 50.2°F10.1°C 83% 9.0 mph WSW14.5 kmh WSW 14.0 mph22.5 kmh 29.53 in1000.0 mb 0.01 in0.3 mm 0.00 in0.0 mm 0.02 in0.5 mm
04:20 AM 55.4°F13.0°C 50.3°F10.2°C 83% 10.9 mph WSW17.5 kmh WSW 20.0 mph32.2 kmh 29.55 in1000.7 mb 0.01 in0.3 mm 0.00 in0.0 mm 0.02 in0.5 mm
04:15 AM 55.5°F13.1°C 50.4°F10.2°C 83% 10.1 mph WSW16.3 kmh WSW 25.0 mph40.2 kmh 29.55 in1000.7 mb 0.01 in0.3 mm 0.00 in0.0 mm 0.02 in0.5 mm
04:10 AM 55.4°F13.0°C 50.3°F10.2°C 83% 8.0 mph WSW12.9 kmh WSW 25.0 mph40.2 kmh 29.54 in1000.3 mb 0.01 in0.3 mm 0.00 in0.0 mm 0.02 in0.5 mm
04:05 AM 55.3°F12.9°C 50.5°F10.3°C 84% 7.1 mph WSW11.4 kmh WSW 17.0 mph27.4 kmh 29.55 in1000.7 mb 0.01 in0.3 mm 0.00 in0.0 mm 0.02 in0.5 mm
04:00 AM 55.5°F13.1°C 50.4°F10.2°C 83% 7.5 mph WSW12.1 kmh WSW 17.0 mph27.4 kmh 29.55 in1000.7 mb 0.01 in0.3 mm 0.00 in0.0 mm 0.02 in0.5 mm
03:55 AM 55.5°F13.1°C 50.4°F10.2°C 83% 9.2 mph WSW14.8 kmh WSW 17.0 mph27.4 kmh 29.56 in1001.0 mb 0.01 in0.3 mm 0.00 in0.0 mm 0.02 in0.5 mm
03:50 AM 55.6°F13.1°C 50.2°F10.1°C 82% 10.6 mph WSW17.1 kmh WSW 17.0 mph27.4 kmh 29.57 in1001.4 mb 0.01 in0.3 mm 0.00 in0.0 mm 0.02 in0.5 mm
03:45 AM 55.7°F13.2°C 50.3°F10.2°C 82% 9.8 mph WSW15.8 kmh WSW 22.0 mph35.4 kmh 29.56 in1001.0 mb 0.01 in0.3 mm 0.00 in0.0 mm 0.02 in0.5 mm
03:40 AM 55.7°F13.2°C 50.3°F10.2°C 82% 8.7 mph WSW14.0 kmh WSW 22.0 mph35.4 kmh 29.56 in1001.0 mb 0.01 in0.3 mm 0.00 in0.0 mm 0.02 in0.5 mm
03:35 AM 55.6°F13.1°C 50.2°F10.1°C 82% 9.2 mph WSW14.8 kmh WSW 14.0 mph22.5 kmh 29.56 in1001.0 mb 0.01 in0.3 mm 0.00 in0.0 mm 0.01 in0.3 mm
03:30 AM 55.5°F13.1°C 50.4°F10.2°C 83% 9.9 mph WSW15.9 kmh WSW 16.0 mph25.7 kmh 29.56 in1001.0 mb 0.01 in0.3 mm 0.00 in0.0 mm 0.01 in0.3 mm
03:25 AM 55.5°F13.1°C 50.4°F10.2°C 83% 8.8 mph WSW14.2 kmh WSW 20.0 mph32.2 kmh 29.57 in1001.4 mb 0.01 in0.3 mm 0.00 in0.0 mm 0.01 in0.3 mm
03:20 AM 55.5°F13.1°C 50.4°F10.2°C 83% 8.3 mph WSW13.4 kmh WSW 20.0 mph32.2 kmh 29.57 in1001.4 mb 0.01 in0.3 mm 0.00 in0.0 mm 0.01 in0.3 mm
03:15 AM 55.3°F12.9°C 50.5°F10.3°C 84% 9.3 mph WSW15.0 kmh WSW 17.0 mph27.4 kmh 29.57 in1001.4 mb 0.01 in0.3 mm 0.00 in0.0 mm 0.01 in0.3 mm
03:10 AM 55.3°F12.9°C 50.5°F10.3°C 84% 9.2 mph WSW14.8 kmh WSW 19.0 mph30.6 kmh 29.58 in1001.7 mb 0.01 in0.3 mm 0.00 in0.0 mm 0.01 in0.3 mm
03:05 AM 55.3°F12.9°C 50.5°F10.3°C 84% 8.3 mph WSW13.4 kmh WSW 19.0 mph30.6 kmh 29.58 in1001.7 mb 0.01 in0.3 mm 0.00 in0.0 mm 0.01 in0.3 mm
03:00 AM 55.1°F12.8°C 50.7°F10.4°C 85% 7.7 mph WSW12.4 kmh WSW 17.0 mph27.4 kmh 29.58 in1001.7 mb 0.01 in0.3 mm 0.00 in0.0 mm 0.01 in0.3 mm
02:55 AM 54.9°F12.7°C 50.8°F10.4°C 86% 7.7 mph WSW12.4 kmh WSW 17.0 mph27.4 kmh 29.59 in1002.0 mb 0.01 in0.3 mm 0.00 in0.0 mm 0.01 in0.3 mm
02:50 AM 55.0°F12.8°C 50.9°F10.5°C 86% 8.6 mph WSW13.8 kmh WSW 16.0 mph25.7 kmh 29.59 in1002.0 mb 0.01 in0.3 mm 0.00 in0.0 mm 0.01 in0.3 mm
02:45 AM 55.1°F12.8°C 50.7°F10.4°C 85% 9.6 mph WSW15.4 kmh WSW 16.0 mph25.7 kmh 29.60 in1002.4 mb 0.01 in0.3 mm 0.12 in3.0 mm 0.01 in0.3 mm
02:40 AM 55.5°F13.1°C 50.7°F10.4°C 84% 10.3 mph WSW16.6 kmh WSW 16.0 mph25.7 kmh 29.60 in1002.4 mb 0.00 in0.0 mm 0.00 in0.0 mm 0.00 in0.0 mm
02:35 AM 55.7°F13.2°C 50.6°F10.3°C 83% 10.3 mph WSW16.6 kmh WSW 18.0 mph29.0 kmh 29.61 in1002.7 mb 0.00 in0.0 mm 0.00 in0.0 mm 0.00 in0.0 mm
02:30 AM 56.0°F13.3°C 50.6°F10.3°C 82% 9.9 mph WSW15.9 kmh WSW 18.0 mph29.0 kmh 29.60 in1002.4 mb 0.00 in0.0 mm 0.00 in0.0 mm 0.00 in0.0 mm
02:25 AM 56.0°F13.3°C 50.6°F10.3°C 82% 9.8 mph WSW15.8 kmh WSW 18.0 mph29.0 kmh 29.61 in1002.7 mb 0.00 in0.0 mm 0.00 in0.0 mm 0.00 in0.0 mm
02:20 AM 56.1°F13.4°C 50.7°F10.4°C 82% 9.9 mph WSW15.9 kmh WSW 20.0 mph32.2 kmh 29.61 in1002.7 mb 0.00 in0.0 mm 0.00 in0.0 mm 0.00 in0.0 mm
02:15 AM 55.9°F13.3°C 50.5°F10.3°C 82% 8.9 mph WSW14.3 kmh WSW 20.0 mph32.2 kmh 29.61 in1002.7 mb 0.00 in0.0 mm 0.00 in0.0 mm 0.00 in0.0 mm
02:10 AM 55.7°F13.2°C 50.6°F10.3°C 83% 7.2 mph WSW11.6 kmh WSW 17.0 mph27.4 kmh 29.61 in1002.7 mb 0.00 in0.0 mm 0.00 in0.0 mm 0.00 in0.0 mm
02:05 AM 55.5°F13.1°C 50.7°F10.4°C 84% 7.2 mph WSW11.6 kmh WSW 17.0 mph27.4 kmh 29.61 in1002.7 mb 0.00 in0.0 mm 0.00 in0.0 mm 0.00 in0.0 mm
02:00 AM 55.3°F12.9°C 50.9°F10.5°C 85% 8.4 mph WSW13.5 kmh WSW 14.0 mph22.5 kmh 29.61 in1002.7 mb 0.00 in0.0 mm 0.00 in0.0 mm 0.00 in0.0 mm
01:55 AM 55.4°F13.0°C 51.0°F10.6°C 85% 9.0 mph WSW14.5 kmh WSW 16.0 mph25.7 kmh 29.61 in1002.7 mb 0.00 in0.0 mm 0.00 in0.0 mm 0.00 in0.0 mm
01:50 AM 55.3°F12.9°C 50.9°F10.5°C 85% 9.0 mph WSW14.5 kmh WSW 16.0 mph25.7 kmh 29.62 in1003.0 mb 0.00 in0.0 mm 0.00 in0.0 mm 0.00 in0.0 mm
01:45 AM 55.2°F12.9°C 51.1°F10.6°C 86% 9.2 mph WSW14.8 kmh WSW 16.0 mph25.7 kmh 29.62 in1003.0 mb 0.00 in0.0 mm 0.00 in0.0 mm 0.00 in0.0 mm
01:40 AM 55.0°F12.8°C 50.9°F10.5°C 86% 9.5 mph WSW15.3 kmh WSW 15.0 mph24.1 kmh 29.63 in1003.4 mb 0.00 in0.0 mm 0.00 in0.0 mm 0.00 in0.0 mm
01:35 AM 55.0°F12.8°C 50.9°F10.5°C 86% 9.4 mph WSW15.1 kmh WSW 16.0 mph25.7 kmh 29.63 in1003.4 mb 0.00 in0.0 mm 0.00 in0.0 mm 0.00 in0.0 mm
01:30 AM 55.1°F12.8°C 51.0°F10.6°C 86% 9.3 mph WSW15.0 kmh WSW 17.0 mph27.4 kmh 29.63 in1003.4 mb 0.00 in0.0 mm 0.00 in0.0 mm 0.00 in0.0 mm
01:25 AM 55.0°F12.8°C 50.9°F10.5°C 86% 10.0 mph WSW16.1 kmh WSW 17.0 mph27.4 kmh 29.64 in1003.7 mb 0.00 in0.0 mm 0.00 in0.0 mm 0.00 in0.0 mm
01:20 AM 55.0°F12.8°C 50.9°F10.5°C 86% 10.2 mph WSW16.4 kmh WSW 19.0 mph30.6 kmh 29.64 in1003.7 mb 0.00 in0.0 mm 0.00 in0.0 mm 0.00 in0.0 mm
01:15 AM 55.1°F12.8°C 51.0°F10.6°C 86% 9.5 mph WSW15.3 kmh WSW 19.0 mph30.6 kmh 29.64 in1003.7 mb 0.00 in0.0 mm 0.00 in0.0 mm 0.00 in0.0 mm
01:10 AM 55.1°F12.8°C 51.0°F10.6°C 86% 9.6 mph WSW15.4 kmh WSW 18.0 mph29.0 kmh 29.63 in1003.4 mb 0.00 in0.0 mm 0.00 in0.0 mm 0.00 in0.0 mm
01:05 AM 55.2°F12.9°C 50.8°F10.4°C 85% 9.8 mph WSW15.8 kmh WSW 20.0 mph32.2 kmh 29.64 in1003.7 mb 0.00 in0.0 mm 0.00 in0.0 mm 0.00 in0.0 mm
01:00 AM 55.3°F12.9°C 50.9°F10.5°C 85% 9.7 mph WSW15.6 kmh WSW 20.0 mph32.2 kmh 29.64 in1003.7 mb 0.00 in0.0 mm 0.00 in0.0 mm 0.00 in0.0 mm
12:55 AM 55.3°F12.9°C 50.5°F10.3°C 84% 9.9 mph WSW15.9 kmh WSW 19.0 mph30.6 kmh 29.64 in1003.7 mb 0.00 in0.0 mm 0.00 in0.0 mm 0.00 in0.0 mm
12:50 AM 55.3°F12.9°C 50.5°F10.3°C 84% 9.6 mph WSW15.4 kmh WSW 20.0 mph32.2 kmh 29.65 in1004.1 mb 0.00 in0.0 mm 0.00 in0.0 mm 0.00 in0.0 mm
12:45 AM 55.2°F12.9°C 50.8°F10.4°C 85% 9.1 mph SW14.6 kmh SW 20.0 mph32.2 kmh 29.65 in1004.1 mb 0.00 in0.0 mm 0.00 in0.0 mm 0.00 in0.0 mm
12:40 AM 55.2°F12.9°C 50.8°F10.4°C 85% 9.6 mph WSW15.4 kmh WSW 15.0 mph24.1 kmh 29.66 in1004.4 mb 0.00 in0.0 mm 0.00 in0.0 mm 0.00 in0.0 mm
12:35 AM 55.1°F12.8°C 50.7°F10.4°C 85% 11.0 mph WSW17.7 kmh WSW 18.0 mph29.0 kmh 29.65 in1004.1 mb 0.00 in0.0 mm 0.00 in0.0 mm 0.00 in0.0 mm
12:30 AM 55.3°F12.9°C 50.9°F10.5°C 85% 11.7 mph WSW18.8 kmh WSW 20.0 mph32.2 kmh 29.66 in1004.4 mb 0.00 in0.0 mm 0.00 in0.0 mm 0.00 in0.0 mm
12:25 AM 55.3°F12.9°C 50.9°F10.5°C 85% 10.4 mph WSW16.7 kmh WSW 20.0 mph32.2 kmh 29.66 in1004.4 mb 0.00 in0.0 mm 0.00 in0.0 mm 0.00 in0.0 mm
12:20 AM 55.1°F12.8°C 50.7°F10.4°C 85% 8.8 mph WSW14.2 kmh WSW 19.0 mph30.6 kmh 29.66 in1004.4 mb 0.00 in0.0 mm 0.00 in0.0 mm 0.00 in0.0 mm
12:15 AM 54.8°F12.7°C 51.0°F10.6°C 87% 8.9 mph WSW14.3 kmh WSW 16.0 mph25.7 kmh 29.66 in1004.4 mb 0.00 in0.0 mm 0.00 in0.0 mm 0.00 in0.0 mm
12:10 AM 54.7°F12.6°C 50.9°F10.5°C 87% 9.7 mph WSW15.6 kmh WSW 17.0 mph27.4 kmh 29.67 in1004.7 mb 0.00 in0.0 mm 0.00 in0.0 mm 0.00 in0.0 mm
12:05 AM 54.8°F12.7°C 51.0°F10.6°C 87% 9.4 mph WSW15.1 kmh WSW 17.0 mph27.4 kmh 29.67 in1004.7 mb 0.00 in0.0 mm 0.00 in0.0 mm 0.00 in0.0 mm
12:00 AM 54.9°F12.7°C 51.1°F10.6°C 87% 8.8 mph WSW14.2 kmh WSW 16.0 mph25.7 kmh 29.67 in1004.7 mb 0.00 in0.0 mm 0.00 in0.0 mm 0.00 in0.0 mm